Kezdőlap
METAR-TAF:

METAR-TAF

Repülőterek :

Yap, Mikronézia

földrajzi szélesség: 09-29N, földrajzi hosszúság: 138-05E, magasság: 28 m

Jelenlegi meteorológiai megfigyelések

A jelentés 38 perccel ezelõtt készült, 16:51 UTC
Különbözõ irányokból fújó szél 3 kt
Hőmérséklet 26°C
Páratartalom 89%
Légköri nyomás 1010 hPa
Látótávolság: 19.3 km
Kevés felhő 1600 lábon, Tornyos gomolyfelhő.
Szórványos felhőzet 13000 lábon
Szakadozott felhőzet 30000 lábon

METAR: PTYA 251651Z VRB03KT 12SM FEW016TCU SCT130 BKN300 26/24 A2982 RMK SHRAE05 TCU SW-W SLP098 T02550239

Idő: 03:29 (17:29 UTC)

Előrejelzés

A jelentés 6 órával és 9 perccel ezelõtt készült, 11:20 UTC
Az előrejelzés 25-én 12 óra UTC és 26-én 12 óra UTC között érvényes
Keleti szél 7 kt
Látótávolság: 10 km
Szórványos felhőzet 1600 lábon
Szórványos felhőzet 13000 lábon
Szakadozott felhőzet 30000 lábon
Záporok a közelben

TAF: PTYA 251120Z 2512/2612 08007KT P6SM VCSH SCT016 SCT130 BKN300

Meteorológiai megfigyelések és előrejelzések több, mint 4000 repülőtéren (METAR és TAF jelentéseket).

A térképen piros és sárga pontok jelzik az elérhető meteorológiai állomásokat.

Mozgassa az egeret a pont fölött, hogy megjelenjen az állomás neve.

Azután kattintson az időjárási megfigyelések és előrejelzések megtekintéséhez.

A térkép megváltoztatása: kattintson a fekete keresztel jelölt zöld gombra ráközelítéshez, a vonallal jelölt zöld gombra távolításhoz, vagy a zöld nyilakra a szomszédos térképek eléréséhez.


METAR-TAF: